Time;durP1;ratioP1;P1;durP2;ratioP2;P2;SDS_P1;SDS_P2;PMS_P1;PMS_P2;Temp;Humidity;BMP_temperature;BMP_pressure;BME280_temperature;BME280_humidity;BME280_pressure;Samples;Min_cycle;Max_cycle;Signal;HPM_P1;HPM_P2
2022/04/27 00:02:17;;;;;;;1.80;1.30;;;;;;;18.65;43.13;102356.69;5144369;27;20038;-45
2022/04/27 00:04:43;;;;;;;1.77;1.67;;;;;;;18.64;43.24;102360.34;5126095;27;20143;-47
2022/04/27 00:07:09;;;;;;;1.80;1.48;;;;;;;18.64;43.17;102351.44;5126230;28;20023;-47
2022/04/27 00:09:34;;;;;;;1.85;1.40;;;;;;;18.63;43.31;102352.41;5108580;27;20019;-48
2022/04/27 00:12:01;;;;;;;1.65;1.50;;;;;;;18.63;42.96;102357.81;5144795;27;20023;-50
2022/04/27 00:14:30;;;;;;;1.52;1.33;;;;;;;18.54;43.20;102340.59;5125575;28;20034;-49
2022/04/27 00:16:56;;;;;;;1.50;1.23;;;;;;;18.51;43.18;102338.16;5144643;28;20027;-46
2022/04/27 00:19:22;;;;;;;1.38;1.25;;;;;;;18.60;43.09;102350.81;5125175;28;20023;-46
2022/04/27 00:21:47;;;;;;;1.67;1.10;;;;;;;18.59;43.25;102353.66;5144545;28;20031;-45
2022/04/27 00:24:12;;;;;;;1.80;1.35;;;;;;;18.59;42.90;102350.97;5125182;28;20027;-45
2022/04/27 00:26:37;;;;;;;1.67;1.55;;;;;;;18.58;43.23;102350.13;5144844;28;20088;-50
2022/04/27 00:29:03;;;;;;;1.85;1.67;;;;;;;18.58;42.93;102352.81;5143922;28;20038;-49
2022/04/27 00:31:31;;;;;;;1.58;1.23;;;;;;;18.57;42.89;102352.97;5144709;28;20057;-47
2022/04/27 00:33:57;;;;;;;1.83;1.40;;;;;;;18.56;42.83;102343.16;5126702;28;20111;-46
2022/04/27 00:36:22;;;;;;;1.73;1.35;;;;;;;18.54;43.08;102356.75;5126030;28;20031;-46
2022/04/27 00:38:47;;;;;;;1.60;1.50;;;;;;;18.55;42.75;102353.06;5123295;28;20031;-50
2022/04/27 00:41:12;;;;;;;1.27;1.17;;;;;;;18.53;43.25;102351.50;5144466;28;20055;-48
2022/04/27 00:43:40;;;;;;;1.70;1.35;;;;;;;18.54;43.01;102355.91;5125217;28;20035;-48
2022/04/27 00:46:05;;;;;;;2.08;1.65;;;;;;;18.48;42.97;102355.44;5144186;28;20030;-46
2022/04/27 00:48:31;;;;;;;1.58;1.48;;;;;;;18.51;42.96;102366.94;5144459;27;20015;-45
2022/04/27 00:50:58;;;;;;;1.52;1.30;;;;;;;18.51;42.94;102361.53;5125802;28;20023;-49
2022/04/27 00:53:23;;;;;;;1.30;1.17;;;;;;;18.50;42.81;102363.38;5143890;27;20414;-51
2022/04/27 00:55:49;;;;;;;1.85;1.63;;;;;;;18.49;42.95;102367.91;5104756;28;20057;-46
2022/04/27 00:58:14;;;;;;;1.65;1.20;;;;;;;18.48;43.00;102358.13;5104753;28;20103;-47
2022/04/27 01:00:39;;;;;;;1.55;1.20;;;;;;;18.48;42.88;102362.69;5105267;28;20020;-47
2022/04/27 01:03:04;;;;;;;1.45;1.20;;;;;;;18.42;42.84;102360.50;5123791;28;20027;-47
2022/04/27 01:05:30;;;;;;;1.48;1.27;;;;;;;18.44;42.81;102362.09;5128851;28;20129;-49
2022/04/27 01:08:00;;;;;;;1.20;1.10;;;;;;;18.33;42.86;102348.66;5123430;28;20051;-47
2022/04/27 01:10:26;;;;;;;1.83;1.40;;;;;;;18.43;42.61;102367.56;5105597;28;20048;-46
2022/04/27 01:12:51;;;;;;;1.23;1.13;;;;;;;18.25;42.68;102335.00;5104979;28;20024;-46
2022/04/27 01:15:33;;;;;;;1.48;1.30;;;;;;;18.45;42.76;102368.31;5123643;28;20027;-46
2022/04/27 01:17:58;;;;;;;1.50;1.30;;;;;;;18.42;42.78;102371.25;5088390;28;20016;-46
2022/04/27 01:20:24;;;;;;;1.58;1.20;;;;;;;18.41;42.90;102381.19;5105395;28;20020;-47
2022/04/27 01:22:49;;;;;;;1.45;1.20;;;;;;;18.39;42.68;102375.09;5110915;28;20031;-47
2022/04/27 01:25:14;;;;;;;2.38;1.50;;;;;;;18.40;42.25;102376.78;5125468;28;20031;-46
2022/04/27 01:27:43;;;;;;;1.50;1.17;;;;;;;18.40;42.71;102378.63;5125060;28;20020;-47
2022/04/27 01:30:10;;;;;;;1.90;1.42;;;;;;;18.37;42.55;102381.56;5125390;27;20606;-47
2022/04/27 01:32:36;;;;;;;1.70;1.40;;;;;;;18.37;42.66;102378.88;5147525;27;20031;-49
2022/04/27 01:35:01;;;;;;;1.45;1.20;;;;;;;18.36;42.43;102383.41;5129146;27;20094;-46
2022/04/27 01:40:10;;;;;;;1.30;1.20;;;;;;;18.24;42.58;102371.81;5130463;27;20052;-45
2022/04/27 01:42:36;;;;;;;1.50;1.35;;;;;;;18.32;42.49;102386.50;5146505;27;20043;-47
2022/04/27 01:45:02;;;;;;;1.25;1.15;;;;;;;18.23;42.89;102372.81;5147367;27;20051;-48
2022/04/27 01:47:27;;;;;;;1.20;1.10;;;;;;;18.32;42.46;102383.81;5146202;27;20022;-46
2022/04/27 01:49:53;;;;;;;1.42;1.27;;;;;;;18.22;42.54;102367.53;5145804;27;20056;-49
2022/04/27 01:55:02;;;;;;;1.27;1.17;;;;;;;18.29;42.34;102389.44;5131082;27;20030;-46
2022/04/27 01:57:27;;;;;;;1.30;1.20;;;;;;;18.20;42.38;102366.84;5128013;27;20023;-47
2022/04/27 01:59:54;;;;;;;1.85;1.33;;;;;;;18.28;42.45;102385.91;5128371;27;20034;-47
2022/04/27 02:02:20;;;;;;;1.92;1.50;;;;;;;18.28;42.45;102388.59;5128541;27;20042;-47
2022/04/27 02:04:46;;;;;;;1.40;1.30;;;;;;;18.27;42.47;102386.88;5128677;27;20041;-47
2022/04/27 02:07:11;;;;;;;1.50;1.40;;;;;;;18.25;42.52;102394.22;5128587;27;20015;-46
2022/04/27 02:09:36;;;;;;;1.13;1.02;;;;;;;18.16;42.40;102376.16;5110496;27;20019;-47
2022/04/27 02:12:02;;;;;;;1.30;1.20;;;;;;;18.25;42.27;102396.91;5128756;27;20031;-47
2022/04/27 02:14:28;;;;;;;1.35;1.25;;;;;;;18.23;42.50;102399.75;5127723;27;20109;-46
2022/04/27 02:16:53;;;;;;;1.83;1.30;;;;;;;18.17;42.56;102392.16;5146839;27;20023;-47
2022/04/27 02:19:18;;;;;;;1.45;1.30;;;;;;;18.21;42.51;102393.63;5128488;27;20027;-50
2022/04/27 02:21:43;;;;;;;1.40;1.30;;;;;;;18.18;42.40;102387.63;5146922;27;20023;-49
2022/04/27 02:24:09;;;;;;;1.60;1.50;;;;;;;18.20;42.39;102396.44;5145737;27;20065;-49
2022/04/27 02:26:34;;;;;;;1.33;1.23;;;;;;;18.10;42.44;102384.75;5146550;27;20041;-45
2022/04/27 02:29:00;;;;;;;1.45;1.35;;;;;;;18.20;42.39;102409.91;5127247;27;20037;-50
2022/04/27 02:31:27;;;;;;;1.45;1.35;;;;;;;18.19;42.49;102400.13;5128102;27;20044;-47
2022/04/27 02:33:52;;;;;;;2.13;1.60;;;;;;;18.08;42.46;102392.06;5128268;27;20019;-46
2022/04/27 02:36:17;;;;;;;1.92;1.30;;;;;;;18.17;42.56;102415.53;5110643;27;20038;-51
2022/04/27 02:38:42;;;;;;;1.30;1.20;;;;;;;18.03;42.15;102392.47;5145288;27;20170;-50
2022/04/27 02:41:08;;;;;;;1.40;1.30;;;;;;;18.15;41.95;102412.13;5110658;27;20078;-46
2022/04/27 02:43:33;;;;;;;1.45;1.35;;;;;;;18.15;42.44;102409.44;5144708;27;20023;-46
2022/04/27 02:45:59;;;;;;;1.30;1.20;;;;;;;18.14;42.33;102415.81;5146133;27;20091;-45
2022/04/27 02:48:24;;;;;;;1.35;1.25;;;;;;;18.13;42.36;102406.00;5145082;27;20034;-48
2022/04/27 02:53:37;;;;;;;1.20;1.10;;;;;;;18.03;42.00;102402.38;5139340;27;20050;-45
2022/04/27 02:56:03;;;;;;;1.30;1.20;;;;;;;18.10;42.25;102419.75;5110273;27;20098;-47
2022/04/27 02:58:28;;;;;;;1.30;1.20;;;;;;;18.09;42.27;102420.69;5127022;27;20042;-45
2022/04/27 03:00:54;;;;;;;1.38;1.15;;;;;;;17.98;41.95;102403.59;5145724;27;20031;-47
2022/04/27 03:03:19;;;;;;;1.65;1.23;;;;;;;18.08;42.19;102427.06;5127618;27;20056;-46
2022/04/27 03:05:44;;;;;;;1.40;1.30;;;;;;;18.07;42.16;102425.38;5127097;27;20023;-49
2022/04/27 03:08:09;;;;;;;1.20;1.10;;;;;;;17.95;42.06;102414.63;5145342;27;20038;-45
2022/04/27 03:10:35;;;;;;;1.23;1.13;;;;;;;17.96;42.10;102415.47;5145594;27;20033;-47
2022/04/27 03:13:00;;;;;;;1.30;1.20;;;;;;;17.94;42.02;102410.22;5144948;27;20038;-48
2022/04/27 03:15:25;;;;;;;1.33;1.20;;;;;;;18.04;41.99;102433.69;5145637;27;20075;-48
2022/04/27 03:18:17;;;;;;;1.27;1.17;;;;;;;18.03;42.11;102429.28;5145531;27;20488;-48
2022/04/27 03:20:36;;;;;;;1.30;1.20;;;;;;;17.99;41.99;102421.47;5145163;27;20027;-51
2022/04/27 03:23:01;;;;;;;1.35;1.20;;;;;;;18.01;42.22;102425.84;5126794;27;20027;-48
2022/04/27 03:25:26;;;;;;;1.52;1.30;;;;;;;17.99;41.92;102431.38;5109682;27;20030;-47
2022/04/27 03:27:51;;;;;;;1.30;1.20;;;;;;;17.88;41.96;102412.53;5144702;27;20023;-49
2022/04/27 03:30:16;;;;;;;1.33;1.23;;;;;;;17.87;41.90;102416.22;5145133;27;20034;-49
2022/04/27 03:32:42;;;;;;;1.58;1.20;;;;;;;17.97;41.97;102434.19;5109805;27;20031;-47
2022/04/27 03:35:07;;;;;;;1.15;1.05;;;;;;;17.96;41.86;102437.84;5144975;27;20019;-47
2022/04/27 03:37:33;;;;;;;1.42;1.33;;;;;;;17.95;42.08;102438.84;5125487;27;20046;-49
2022/04/27 03:39:58;;;;;;;1.48;1.38;;;;;;;17.95;41.97;102444.22;5143661;27;20031;-50
2022/04/27 03:42:23;;;;;;;1.42;1.33;;;;;;;17.93;42.12;102448.03;5126407;27;20050;-47
2022/04/27 03:44:48;;;;;;;1.40;1.30;;;;;;;17.93;42.00;102442.66;5144653;27;20324;-46
2022/04/27 03:47:14;;;;;;;1.15;1.05;;;;;;;17.92;41.94;102446.28;5145302;27;20148;-46
2022/04/27 03:49:39;;;;;;;1.23;1.10;;;;;;;17.81;41.87;102430.19;5143626;27;20059;-46
2022/04/27 03:52:04;;;;;;;1.30;1.08;;;;;;;17.81;41.87;102428.34;5143395;27;20039;-47
2022/04/27 03:54:30;;;;;;;1.38;1.27;;;;;;;17.90;41.88;102462.56;5144442;27;20034;-50
2022/04/27 03:56:56;;;;;;;1.30;1.10;;;;;;;17.80;41.77;102448.16;5145059;27;20426;-48
2022/04/27 03:59:21;;;;;;;1.58;1.20;;;;;;;17.87;41.76;102448.50;5144183;27;20058;-46
2022/04/27 04:01:46;;;;;;;1.77;1.30;;;;;;;17.86;42.00;102453.03;5126272;27;20555;-47
2022/04/27 04:04:11;;;;;;;1.42;1.25;;;;;;;17.86;41.91;102447.66;5144709;27;20023;-48
2022/04/27 04:06:39;;;;;;;1.15;1.10;;;;;;;17.86;41.84;102455.72;5126183;28;20537;-48
2022/04/27 04:09:04;;;;;;;1.65;1.33;;;;;;;17.75;41.86;102436.91;5143691;27;20023;-49
2022/04/27 04:11:29;;;;;;;1.35;1.25;;;;;;;17.77;41.72;102442.19;5144850;27;20031;-48
2022/04/27 04:13:55;;;;;;;1.30;1.17;;;;;;;17.86;41.74;102458.44;5143745;27;20114;-48
2022/04/27 04:16:20;;;;;;;1.17;1.02;;;;;;;17.86;41.69;102455.72;5126038;28;20035;-52
2022/04/27 04:18:45;;;;;;;1.33;1.23;;;;;;;17.88;41.78;102458.28;5143744;28;20023;-48
2022/04/27 04:21:10;;;;;;;1.25;1.13;;;;;;;17.88;41.77;102463.66;5119927;28;20027;-48
2022/04/27 04:23:36;;;;;;;1.40;1.30;;;;;;;17.88;41.60;102466.34;5105719;28;20120;-47
2022/04/27 04:28:45;;;;;;;1.10;1.00;;;;;;;17.86;42.00;102468.34;5128140;28;20033;-48
2022/04/27 04:31:10;;;;;;;0.98;0.98;;;;;;;17.87;41.63;102476.28;5144458;28;20059;-46
2022/04/27 04:33:37;;;;;;;0.98;0.85;;;;;;;17.88;41.99;102477.13;5142599;28;20027;-50
2022/04/27 04:36:02;;;;;;;1.10;1.00;;;;;;;17.87;41.93;102476.28;5121209;28;20115;-53
2022/04/27 04:38:28;;;;;;;1.65;1.20;;;;;;;17.79;41.86;102469.78;5132913;28;20066;-46
2022/04/27 04:40:53;;;;;;;1.35;1.00;;;;;;;17.79;41.89;102481.41;5119640;28;20043;-46
2022/04/27 04:43:19;;;;;;;1.00;1.00;;;;;;;17.86;41.69;102489.84;5138819;28;20050;-47
2022/04/27 04:45:44;;;;;;;2.05;1.65;;;;;;;17.87;41.63;102503.19;5143039;28;20386;-48
2022/04/27 04:48:09;;;;;;;0.93;0.93;;;;;;;17.86;41.89;102500.63;5122694;28;20014;-46
2022/04/27 04:50:36;;;;;;;1.10;1.00;;;;;;;17.86;41.98;102498.78;5108365;28;20547;-46
2022/04/27 04:53:02;;;;;;;0.80;0.80;;;;;;;17.77;41.76;102488.75;5122450;28;20015;-48
2022/04/27 04:55:28;;;;;;;0.98;0.90;;;;;;;17.85;41.88;102513.22;5140723;28;20023;-46
2022/04/27 04:57:53;;;;;;;1.10;1.00;;;;;;;17.85;41.78;102513.22;5121703;28;20019;-50
2022/04/27 05:00:18;;;;;;;1.10;1.00;;;;;;;17.84;42.22;102508.84;5122443;28;20031;-47
2022/04/27 05:02:44;;;;;;;1.00;0.98;;;;;;;17.83;42.04;102512.47;5122439;28;20043;-48
2022/04/27 05:05:10;;;;;;;0.90;0.90;;;;;;;17.76;42.05;102500.50;5115703;27;20031;-48
2022/04/27 05:07:36;;;;;;;0.90;0.90;;;;;;;17.83;42.04;102512.47;5119743;27;20030;-47
2022/04/27 05:10:01;;;;;;;1.38;1.15;;;;;;;17.72;41.93;102499.00;5110599;27;20027;-48
2022/04/27 05:12:27;;;;;;;0.95;0.90;;;;;;;17.82;42.19;102518.00;5138845;27;20027;-49
2022/04/27 05:14:52;;;;;;;1.35;1.10;;;;;;;17.82;42.19;102520.69;5135390;27;20051;-51
2022/04/27 05:17:18;;;;;;;0.90;0.90;;;;;;;17.81;41.97;102525.22;5133389;27;20079;-50
2022/04/27 05:19:43;;;;;;;1.30;1.20;;;;;;;17.81;42.27;102524.34;5110145;28;20061;-47
2022/04/27 05:22:09;;;;;;;1.15;0.95;;;;;;;17.80;42.08;102526.19;5097175;27;20027;-49
2022/04/27 05:24:34;;;;;;;0.90;0.90;;;;;;;17.79;42.01;102532.53;5108127;28;20028;-49
2022/04/27 05:27:00;;;;;;;1.10;1.00;;;;;;;17.70;42.22;102519.78;5123196;27;20041;-48
2022/04/27 05:32:10;;;;;;;1.10;0.98;;;;;;;17.78;42.02;102538.91;5145776;27;20054;-50
2022/04/27 05:34:36;;;;;;;1.10;1.05;;;;;;;17.79;42.00;102539.75;5146017;27;20034;-45
2022/04/27 05:37:02;;;;;;;1.48;0.93;;;;;;;17.76;42.14;102537.31;5110699;27;20030;-48
2022/04/27 05:39:27;;;;;;;0.80;0.80;;;;;;;17.65;42.17;102525.53;5118703;27;20034;-49
2022/04/27 05:41:53;;;;;;;1.02;0.95;;;;;;;17.77;42.32;102544.41;5096601;27;20073;-48
2022/04/27 05:44:19;;;;;;;1.20;1.10;;;;;;;17.65;42.20;102524.66;5126828;27;20023;-52
2022/04/27 05:46:45;;;;;;;1.15;1.02;;;;;;;17.66;42.34;102531.75;5119257;27;20095;-51
2022/04/27 05:49:11;;;;;;;1.10;1.00;;;;;;;17.66;42.32;102527.22;5107785;28;20030;-47
2022/04/27 05:51:36;;;;;;;1.08;1.00;;;;;;;17.74;42.03;102551.72;5113747;27;20019;-49
2022/04/27 05:54:01;;;;;;;0.70;0.70;;;;;;;17.67;42.44;102536.16;5112869;27;20027;-47
2022/04/27 05:56:27;;;;;;;0.80;0.80;;;;;;;17.78;42.51;102565.81;5118644;28;20028;-46
2022/04/27 05:58:52;;;;;;;0.80;0.80;;;;;;;17.78;42.15;102557.72;5130866;27;20032;-49
2022/04/27 06:01:18;;;;;;;1.35;1.20;;;;;;;17.78;42.11;102559.56;5107574;28;20038;-46
2022/04/27 06:03:44;;;;;;;1.20;1.10;;;;;;;17.80;42.33;102566.56;5107408;28;20039;-46
2022/04/27 06:06:09;;;;;;;0.90;0.90;;;;;;;17.80;42.16;102561.16;5125639;28;20035;-49
2022/04/27 06:08:34;;;;;;;0.90;0.90;;;;;;;17.81;42.49;102565.56;5125788;28;20031;-46
2022/04/27 06:10:59;;;;;;;0.90;0.90;;;;;;;17.81;42.19;102568.25;5126056;28;20063;-47
2022/04/27 06:13:24;;;;;;;1.23;1.13;;;;;;;17.72;42.47;102556.34;5106704;28;20023;-50
2022/04/27 06:15:50;;;;;;;0.90;0.90;;;;;;;17.83;42.28;102576.19;5107657;28;20060;-47
2022/04/27 06:18:16;;;;;;;0.88;0.88;;;;;;;17.83;42.48;102579.75;5124172;28;20028;-51
2022/04/27 06:20:41;;;;;;;1.42;1.33;;;;;;;17.82;42.33;102575.34;5090338;28;20023;-51
2022/04/27 06:23:07;;;;;;;0.98;0.88;;;;;;;17.84;42.56;102583.28;5107063;28;20020;-52
2022/04/27 06:25:34;;;;;;;0.90;0.90;;;;;;;17.76;42.57;102567.75;5132430;27;20015;-53
2022/04/27 06:27:59;;;;;;;1.00;1.00;;;;;;;17.86;42.41;102584.03;5127168;27;20043;-51
2022/04/27 06:30:25;;;;;;;1.13;1.02;;;;;;;17.86;42.28;102575.97;5146027;27;20026;-51
2022/04/27 06:32:50;;;;;;;0.95;0.85;;;;;;;17.87;42.21;102577.66;5145965;27;20025;-50
2022/04/27 06:35:16;;;;;;;1.20;1.10;;;;;;;17.89;42.34;102590.03;5146114;27;20107;-51
2022/04/27 06:37:41;;;;;;;1.65;1.10;;;;;;;17.89;42.41;102583.81;5125309;27;20448;-47
2022/04/27 06:40:08;;;;;;;1.40;1.27;;;;;;;17.88;42.29;102585.63;5144920;27;20087;-49
2022/04/27 06:42:34;;;;;;;0.93;0.93;;;;;;;17.90;42.27;102590.88;5126768;27;20043;-51
2022/04/27 06:45:00;;;;;;;1.30;1.20;;;;;;;17.92;42.36;102597.00;5129896;27;20056;-48
2022/04/27 06:47:26;;;;;;;1.10;1.00;;;;;;;17.82;42.46;102578.03;5144253;27;20039;-49
2022/04/27 06:49:51;;;;;;;2.08;0.93;;;;;;;17.93;42.43;102591.50;5145672;27;20023;-47
2022/04/27 06:52:16;;;;;;;1.20;1.10;;;;;;;17.94;42.23;102595.06;5126888;27;20044;-47
2022/04/27 06:54:41;;;;;;;0.93;0.90;;;;;;;17.85;42.07;102585.88;5144946;27;20022;-47
2022/04/27 06:57:07;;;;;;;2.03;1.00;;;;;;;17.96;41.98;102606.53;5144066;27;20027;-48
2022/04/27 06:59:32;;;;;;;1.30;1.02;;;;;;;17.96;42.31;102601.16;5144608;27;20024;-47
2022/04/27 07:01:57;;;;;;;1.40;1.20;;;;;;;17.97;42.38;102605.59;5126494;27;20411;-50
2022/04/27 07:04:22;;;;;;;1.00;0.90;;;;;;;17.96;42.16;102604.69;5144925;27;20106;-50
2022/04/27 07:06:48;;;;;;;2.15;1.20;;;;;;;17.99;42.28;102609.84;5126286;27;20018;-51
2022/04/27 07:09:13;;;;;;;1.13;1.02;;;;;;;17.97;42.16;102603.75;5125546;27;20049;-48
2022/04/27 07:11:40;;;;;;;1.77;1.10;;;;;;;18.01;42.02;102611.56;5145039;27;20019;-51
2022/04/27 07:14:05;;;;;;;1.38;1.27;;;;;;;18.02;42.36;102610.59;5144172;27;20019;-50
2022/04/27 07:16:30;;;;;;;1.13;1.02;;;;;;;18.02;42.01;102616.84;5126292;27;20125;-50
2022/04/27 07:18:56;;;;;;;1.48;1.20;;;;;;;18.02;41.99;102621.38;5144864;27;20023;-49
2022/04/27 07:21:21;;;;;;;1.20;1.10;;;;;;;18.02;42.19;102618.66;5144283;27;20019;-48
2022/04/27 07:23:47;;;;;;;1.10;1.00;;;;;;;18.03;41.92;102618.53;5108979;27;20015;-47
2022/04/27 07:26:12;;;;;;;1.35;1.20;;;;;;;18.02;41.87;102614.16;5125367;27;20033;-45
2022/04/27 07:28:38;;;;;;;1.20;1.10;;;;;;;17.97;42.03;102616.34;5124966;27;20031;-49
2022/04/27 07:31:04;;;;;;;1.27;1.00;;;;;;;18.04;41.93;102619.41;5109295;27;20027;-50
2022/04/27 07:33:29;;;;;;;1.08;1.00;;;;;;;17.94;41.78;102609.34;5126218;27;20058;-49
2022/04/27 07:35:55;;;;;;;1.20;1.10;;;;;;;18.03;41.96;102623.06;5143542;27;20035;-47
2022/04/27 07:38:20;;;;;;;0.90;0.90;;;;;;;17.92;41.84;102605.06;5107535;27;20473;-50
2022/04/27 07:40:46;;;;;;;1.10;1.00;;;;;;;18.01;41.92;102625.00;5142966;27;20061;-51
2022/04/27 07:43:11;;;;;;;1.00;0.90;;;;;;;17.92;41.91;102616.69;5108290;27;20023;-50
2022/04/27 07:45:36;;;;;;;1.60;1.13;;;;;;;18.00;41.86;102632.22;5115521;27;20023;-48
2022/04/27 07:48:01;;;;;;;1.30;1.20;;;;;;;17.91;41.86;102625.75;5143828;27;20114;-47
2022/04/27 07:50:27;;;;;;;1.10;1.00;;;;;;;18.01;41.61;102633.09;5125090;27;20026;-46
2022/04/27 07:52:52;;;;;;;2.17;1.10;;;;;;;18.01;41.53;102641.16;5143550;27;20033;-48
2022/04/27 07:55:18;;;;;;;1.10;1.00;;;;;;;17.99;41.93;102634.06;5124924;27;20023;-47
2022/04/27 07:57:45;;;;;;;0.80;0.80;;;;;;;17.99;41.99;102634.06;5143002;27;20071;-46
2022/04/27 08:00:12;;;;;;;1.20;1.10;;;;;;;17.99;41.89;102635.91;5143472;27;20784;-47
2022/04/27 08:02:40;;;;;;;1.98;1.25;;;;;;;17.99;41.64;102635.91;5124558;27;20027;-48
2022/04/27 08:05:06;;;;;;;1.20;1.00;;;;;;;17.99;41.77;102643.97;5124867;27;20019;-50
2022/04/27 08:07:39;;;;;;;1.05;0.80;;;;;;;18.01;41.60;102641.16;5143031;27;20057;-47
2022/04/27 08:10:10;;;;;;;1.20;0.90;;;;;;;17.98;41.82;102648.50;5141912;27;20023;-51
2022/04/27 08:12:36;;;;;;;1.00;0.77;;;;;;;17.97;41.48;102641.41;5142958;27;20030;-50
2022/04/27 08:15:01;;;;;;;1.45;1.02;;;;;;;17.99;41.95;102646.66;5124229;28;20015;-48
2022/04/27 08:17:26;;;;;;;1.00;1.00;;;;;;;17.97;41.57;102645.94;5124665;28;20027;-49
2022/04/27 08:21:13;;;;;;;1.50;1.02;;;;;;;17.97;41.74;102649.50;5142846;27;20508;-50
2022/04/27 08:22:36;;;;;;;1.20;1.10;;;;;;;17.97;41.87;102654.88;5142776;28;20030;-48
2022/04/27 08:25:02;;;;;;;1.27;1.10;;;;;;;17.88;41.68;102638.56;5123936;28;20042;-49
2022/04/27 08:27:27;;;;;;;0.80;0.80;;;;;;;17.97;41.50;102649.50;5124372;28;20047;-49
2022/04/27 08:29:52;;;;;;;1.15;0.98;;;;;;;17.87;41.78;102632.34;5142360;28;20109;-45
2022/04/27 08:32:18;;;;;;;0.90;0.90;;;;;;;17.98;41.61;102647.66;5124258;28;20045;-50
2022/04/27 08:34:43;;;;;;;1.17;1.05;;;;;;;17.88;41.69;102631.38;5142841;28;20054;-47
2022/04/27 08:37:08;;;;;;;1.17;0.98;;;;;;;17.98;41.54;102656.59;5123944;28;20059;-50
2022/04/27 08:39:33;;;;;;;0.80;0.80;;;;;;;17.91;41.60;102641.03;5121622;28;20035;-52
2022/04/27 08:41:59;;;;;;;1.77;1.10;;;;;;;18.01;41.68;102660.00;5145675;27;20206;-47
2022/04/27 08:44:24;;;;;;;1.00;1.00;;;;;;;17.95;41.63;102651.44;5145892;27;20062;-50
2022/04/27 08:46:49;;;;;;;0.80;0.70;;;;;;;17.99;41.62;102660.97;5146084;27;20032;-47
2022/04/27 08:49:15;;;;;;;0.90;0.90;;;;;;;17.90;41.80;102645.56;5128051;27;20109;-51
2022/04/27 08:51:40;;;;;;;1.15;1.05;;;;;;;18.01;41.76;102662.69;5128239;27;20019;-50
2022/04/27 08:54:06;;;;;;;1.08;0.98;;;;;;;18.01;41.68;102662.69;5145821;27;20027;-52
2022/04/27 08:56:33;;;;;;;0.80;0.80;;;;;;;18.00;41.56;102664.53;5145899;27;20034;-48
2022/04/27 08:59:00;;;;;;;1.10;1.00;;;;;;;18.01;41.68;102671.66;5127116;27;20027;-47
2022/04/27 09:01:25;;;;;;;0.90;0.90;;;;;;;18.01;41.42;102677.03;5127760;27;20042;-51
2022/04/27 09:03:50;;;;;;;0.80;0.80;;;;;;;18.01;41.51;102668.06;5145824;27;20035;-48
2022/04/27 09:06:17;;;;;;;1.08;0.98;;;;;;;17.99;41.48;102671.75;5145673;27;20031;-49
2022/04/27 09:08:55;;;;;;;0.80;0.80;;;;;;;17.93;41.53;102652.53;5126510;27;20051;-53
2022/04/27 09:11:28;;;;;;;1.20;1.10;;;;;;;18.00;41.58;102672.59;5127704;27;20036;-49
2022/04/27 09:13:58;;;;;;;1.17;1.08;;;;;;;17.90;41.59;102668.94;5145199;27;20023;-48
2022/04/27 09:22:24;;;;;;;1.20;1.10;;;;;;;17.84;41.59;102658.63;5129155;27;20118;-46
2022/04/27 09:24:53;;;;;;;1.00;0.90;;;;;;;17.95;41.35;102672.09;5144364;27;20488;-47
2022/04/27 09:27:20;;;;;;;1.15;1.05;;;;;;;17.94;41.70;102682.03;5123791;27;20048;-45
2022/04/27 09:29:58;;;;;;;0.95;0.95;;;;;;;17.98;41.70;102678.13;5128519;27;20118;-50
2022/04/27 09:32:23;;;;;;;1.20;1.10;;;;;;;17.97;41.71;102678.25;5124290;27;20027;-51
2022/04/27 09:34:49;;;;;;;0.98;0.90;;;;;;;17.98;41.92;102677.25;5105462;28;20027;-46
2022/04/27 09:37:24;;;;;;;1.15;1.05;;;;;;;18.00;41.90;102677.97;5119754;27;20024;-51
2022/04/27 09:40:02;;;;;;;1.38;0.80;;;;;;;18.01;41.81;102682.41;5107562;28;20061;-46
2022/04/27 09:42:41;;;;;;;1.45;1.10;;;;;;;17.90;41.85;102667.09;5124282;27;20039;-49
2022/04/27 09:45:16;;;;;;;1.00;0.90;;;;;;;18.02;41.62;102685.97;5143740;27;20023;-49
2022/04/27 09:47:53;;;;;;;0.93;0.90;;;;;;;18.00;41.63;102688.75;5138212;27;20072;-46
2022/04/27 09:50:19;;;;;;;0.95;0.80;;;;;;;17.98;41.87;102682.66;5142383;27;20011;-47
2022/04/27 09:52:44;;;;;;;1.27;1.10;;;;;;;17.97;41.82;102683.63;5123012;27;20035;-50
2022/04/27 09:55:13;;;;;;;1.13;1.02;;;;;;;17.99;42.07;102685.19;5125716;27;20022;-48
2022/04/27 09:57:40;;;;;;;0.80;0.80;;;;;;;17.99;41.95;102682.50;5123337;27;20027;-50
2022/04/27 10:00:06;;;;;;;0.80;0.80;;;;;;;17.90;41.91;102671.63;5144239;27;20066;-50
2022/04/27 10:02:34;;;;;;;0.90;0.90;;;;;;;18.01;41.89;102687.78;5144426;27;20069;-51
2022/04/27 10:05:00;;;;;;;0.90;0.90;;;;;;;18.00;41.77;102686.06;5125879;27;20118;-45
2022/04/27 10:07:26;;;;;;;0.80;0.80;;;;;;;17.97;41.88;102681.78;5144015;27;20043;-52
2022/04/27 10:09:52;;;;;;;1.23;0.90;;;;;;;18.02;41.83;102686.81;5125031;27;20034;-48
2022/04/27 10:12:17;;;;;;;0.85;0.85;;;;;;;18.03;41.70;102684.97;5143857;27;20034;-48
2022/04/27 10:14:43;;;;;;;0.70;0.70;;;;;;;18.03;42.02;102685.81;5122119;27;20027;-47
2022/04/27 10:17:10;;;;;;;1.00;0.90;;;;;;;18.07;41.73;102681.06;5143090;27;20023;-49
2022/04/27 10:19:35;;;;;;;0.75;0.73;;;;;;;18.07;41.94;102683.75;5104614;27;20019;-50
2022/04/27 10:22:02;;;;;;;0.90;0.90;;;;;;;17.97;42.01;102670.16;5140919;27;20038;-50
2022/04/27 10:24:46;;;;;;;0.95;0.90;;;;;;;17.96;41.98;102669.28;5104395;27;20034;-51
2022/04/27 10:27:21;;;;;;;0.90;0.90;;;;;;;18.08;41.95;102680.94;5141947;27;20015;-49
2022/04/27 10:29:49;;;;;;;0.80;0.80;;;;;;;18.07;42.17;102684.63;5140456;27;20033;-52
2022/04/27 10:32:33;;;;;;;0.80;0.80;;;;;;;18.09;42.20;102689.88;5135515;27;20089;-52
2022/04/27 10:35:30;;;;;;;0.80;0.80;;;;;;;18.07;42.42;102684.63;5143033;27;20063;-53
2022/04/27 10:38:05;;;;;;;0.95;0.90;;;;;;;18.07;42.19;102681.91;5106026;27;20072;-53
2022/04/27 10:40:43;;;;;;;0.90;0.90;;;;;;;18.10;42.15;102688.91;5122095;27;20030;-51
2022/04/27 10:43:09;;;;;;;0.93;0.80;;;;;;;18.08;42.26;102683.63;5137492;27;20440;-49
2022/04/27 10:45:40;;;;;;;0.93;0.90;;;;;;;18.00;42.17;102669.91;5143462;27;20196;-53
2022/04/27 10:48:07;;;;;;;1.00;0.90;;;;;;;18.10;42.10;102686.22;5143456;27;20023;-49
2022/04/27 10:50:36;;;;;;;0.80;0.80;;;;;;;18.02;42.35;102683.28;5142551;27;20054;-51
2022/04/27 10:53:40;;;;;;;0.80;0.80;;;;;;;18.13;42.20;102688.66;5142100;27;20015;-50
2022/04/27 10:56:25;;;;;;;1.88;1.35;;;;;;;18.03;42.14;102675.06;5059249;28;20080;-50
2022/04/27 10:58:51;;;;;;;1.00;0.90;;;;;;;18.04;42.24;102678.59;5042347;28;20045;-47
2022/04/27 11:01:19;;;;;;;1.15;0.98;;;;;;;18.17;42.33;102692.81;5042803;28;20036;-47
2022/04/27 11:03:54;;;;;;;0.80;0.80;;;;;;;18.19;42.39;102686.34;5042894;28;20033;-49
2022/04/27 11:06:20;;;;;;;0.90;0.90;;;;;;;18.19;42.51;102683.66;5020087;28;20049;-51
2022/04/27 11:09:04;;;;;;;1.02;0.90;;;;;;;18.13;42.33;102664.41;5026249;28;20063;-49
2022/04/27 11:11:31;;;;;;;1.13;1.00;;;;;;;18.21;42.38;102684.38;5021759;28;20052;-47
2022/04/27 11:14:00;;;;;;;1.10;1.00;;;;;;;18.22;42.44;102686.13;5005654;28;20125;-50
2022/04/27 11:16:26;;;;;;;1.00;0.80;;;;;;;18.24;42.62;102686.84;5009583;28;20033;-47
2022/04/27 11:18:55;;;;;;;1.10;1.00;;;;;;;18.26;42.57;102677.78;5029950;28;20031;-48
2022/04/27 11:21:20;;;;;;;;;;;;;;;18.23;42.59;102686.97;5029675;28;20124;-49
2022/04/27 11:23:46;;;;;;;1.00;0.90;;;;;;;18.25;42.62;102676.91;5041626;28;19934;-45
2022/04/27 11:26:13;;;;;;;1.08;0.95;;;;;;;18.27;42.53;102679.50;5036211;28;20088;-47
2022/04/27 11:28:39;;;;;;;0.90;0.85;;;;;;;18.26;42.80;102675.94;5026464;28;20213;-45
2022/04/27 11:31:05;;;;;;;1.27;0.90;;;;;;;18.27;42.88;102679.50;5098346;27;20040;-44
2022/04/27 11:33:31;;;;;;;0.93;0.80;;;;;;;18.29;42.84;102678.38;5143138;27;20033;-46
2022/04/27 11:35:56;;;;;;;0.80;0.80;;;;;;;18.30;42.59;102681.94;5142030;27;20584;-47
2022/04/27 11:38:33;;;;;;;0.98;0.93;;;;;;;18.22;42.89;102664.56;5121825;27;20083;-46
2022/04/27 11:40:59;;;;;;;0.93;0.90;;;;;;;18.30;42.64;102680.09;5123995;27;20039;-47
2022/04/27 11:43:25;;;;;;;0.80;0.80;;;;;;;18.32;42.87;102674.63;5141472;27;20027;-45